sensor_id;sensor_type;location;lat;lon;timestamp;pressure;altitude;pressure_sealevel;temperature;humidity
44872;BME280;30602;51.060;17.226;2023-02-08T00:03:12;104321.70;;;-1.94;78.83
44872;BME280;30602;51.060;17.226;2023-02-08T00:06:47;104328.66;;;-2.03;79.01
44872;BME280;30602;51.060;17.226;2023-02-08T00:10:01;104329.56;;;-1.99;78.12
44872;BME280;30602;51.060;17.226;2023-02-08T00:13:41;104332.88;;;-1.84;77.15
44872;BME280;30602;51.060;17.226;2023-02-08T00:17:22;104332.03;;;-1.80;76.75
44872;BME280;30602;51.060;17.226;2023-02-08T00:21:26;104329.71;;;-1.83;75.37
44872;BME280;30602;51.060;17.226;2023-02-08T00:25:07;104333.55;;;-1.91;76.70
44872;BME280;30602;51.060;17.226;2023-02-08T00:28:32;104335.42;;;-1.92;76.91
44872;BME280;30602;51.060;17.226;2023-02-08T00:32:38;104342.34;;;-1.91;77.46
44872;BME280;30602;51.060;17.226;2023-02-08T00:35:58;104341.65;;;-1.86;77.65
44872;BME280;30602;51.060;17.226;2023-02-08T00:39:09;104344.42;;;-1.86;77.53
44872;BME280;30602;51.060;17.226;2023-02-08T00:42:52;104341.39;;;-1.92;77.85
44872;BME280;30602;51.060;17.226;2023-02-08T00:46:05;104345.03;;;-1.91;76.72
44872;BME280;30602;51.060;17.226;2023-02-08T00:49:38;104344.60;;;-1.91;76.56
44872;BME280;30602;51.060;17.226;2023-02-08T00:53:13;104346.00;;;-1.92;77.03
44872;BME280;30602;51.060;17.226;2023-02-08T00:56:25;104350.02;;;-1.95;78.11
44872;BME280;30602;51.060;17.226;2023-02-08T00:59:35;104350.35;;;-1.95;78.56
44872;BME280;30602;51.060;17.226;2023-02-08T01:02:47;104348.18;;;-1.92;78.85
44872;BME280;30602;51.060;17.226;2023-02-08T01:06:07;104340.98;;;-1.98;78.74
44872;BME280;30602;51.060;17.226;2023-02-08T01:09:17;104346.46;;;-1.94;78.40
44872;BME280;30602;51.060;17.226;2023-02-08T01:12:40;104340.97;;;-1.95;78.41
44872;BME280;30602;51.060;17.226;2023-02-08T01:16:05;104341.80;;;-1.93;78.07
44872;BME280;30602;51.060;17.226;2023-02-08T01:20:07;104333.44;;;-1.91;77.32
44872;BME280;30602;51.060;17.226;2023-02-08T01:23:53;104328.11;;;-1.88;77.78
44872;BME280;30602;51.060;17.226;2023-02-08T01:27:03;104330.84;;;-1.81;76.92
44872;BME280;30602;51.060;17.226;2023-02-08T01:30:15;104329.87;;;-1.84;76.80
44872;BME280;30602;51.060;17.226;2023-02-08T01:33:27;104331.90;;;-1.81;76.70
44872;BME280;30602;51.060;17.226;2023-02-08T01:36:40;104323.95;;;-1.85;77.03
44872;BME280;30602;51.060;17.226;2023-02-08T01:39:54;104317.95;;;-1.88;76.26
44872;BME280;30602;51.060;17.226;2023-02-08T01:43:24;104319.09;;;-1.91;75.61
44872;BME280;30602;51.060;17.226;2023-02-08T01:46:40;104320.49;;;-1.89;75.29
44872;BME280;30602;51.060;17.226;2023-02-08T01:50:02;104320.96;;;-1.84;74.93
44872;BME280;30602;51.060;17.226;2023-02-08T01:53:18;104322.92;;;-1.79;75.41
44872;BME280;30602;51.060;17.226;2023-02-08T01:56:35;104321.23;;;-1.83;75.59
44872;BME280;30602;51.060;17.226;2023-02-08T02:00:20;104315.27;;;-1.82;76.22
44872;BME280;30602;51.060;17.226;2023-02-08T02:04:18;104310.37;;;-1.81;76.19
44872;BME280;30602;51.060;17.226;2023-02-08T02:07:46;104312.28;;;-1.80;76.07
44872;BME280;30602;51.060;17.226;2023-02-08T02:10:54;104306.91;;;-1.82;75.84
44872;BME280;30602;51.060;17.226;2023-02-08T02:14:41;104307.79;;;-1.80;75.90
44872;BME280;30602;51.060;17.226;2023-02-08T02:17:49;104305.91;;;-1.82;76.61
44872;BME280;30602;51.060;17.226;2023-02-08T02:36:25;104298.14;;;-1.82;75.57
44872;BME280;30602;51.060;17.226;2023-02-08T02:43:55;104299.48;;;-1.78;75.40
44872;BME280;30602;51.060;17.226;2023-02-08T02:50:46;104293.84;;;-1.85;76.00
44872;BME280;30602;51.060;17.226;2023-02-08T02:54:24;104300.11;;;-1.88;75.86
44872;BME280;30602;51.060;17.226;2023-02-08T02:57:37;104303.73;;;-1.89;75.69
44872;BME280;30602;51.060;17.226;2023-02-08T03:00:53;104297.23;;;-1.93;76.61
44872;BME280;30602;51.060;17.226;2023-02-08T03:04:14;104299.31;;;-1.91;77.24
44872;BME280;30602;51.060;17.226;2023-02-08T03:39:37;104313.80;;;-2.04;79.05
44872;BME280;30602;51.060;17.226;2023-02-08T03:43:25;104318.77;;;-2.08;79.84
44872;BME280;30602;51.060;17.226;2023-02-08T03:46:54;104316.25;;;-2.02;79.53
44872;BME280;30602;51.060;17.226;2023-02-08T03:50:13;104325.96;;;-1.98;79.88
44872;BME280;30602;51.060;17.226;2023-02-08T03:53:30;104323.92;;;-2.05;79.71
44872;BME280;30602;51.060;17.226;2023-02-08T04:01:07;104324.15;;;-2.04;79.64
44872;BME280;30602;51.060;17.226;2023-02-08T04:04:20;104325.07;;;-2.01;79.88
44872;BME280;30602;51.060;17.226;2023-02-08T04:07:35;104331.23;;;-2.03;80.53
44872;BME280;30602;51.060;17.226;2023-02-08T04:11:41;104333.86;;;-2.03;81.05
44872;BME280;30602;51.060;17.226;2023-02-08T04:14:52;104337.22;;;-2.04;80.90
44872;BME280;30602;51.060;17.226;2023-02-08T04:18:03;104339.95;;;-2.05;81.47
44872;BME280;30602;51.060;17.226;2023-02-08T04:21:45;104341.21;;;-2.04;81.42
44872;BME280;30602;51.060;17.226;2023-02-08T04:25:11;104340.84;;;-2.05;81.48
44872;BME280;30602;51.060;17.226;2023-02-08T04:29:02;104338.10;;;-2.08;81.05
44872;BME280;30602;51.060;17.226;2023-02-08T04:32:33;104336.17;;;-2.07;82.24
44872;BME280;30602;51.060;17.226;2023-02-08T04:35:46;104337.74;;;-2.05;83.19
44872;BME280;30602;51.060;17.226;2023-02-08T04:39:19;104333.45;;;-2.06;83.34
44872;BME280;30602;51.060;17.226;2023-02-08T04:43:02;104335.34;;;-2.06;83.16
44872;BME280;30602;51.060;17.226;2023-02-08T04:46:20;104330.98;;;-2.03;82.49
44872;BME280;30602;51.060;17.226;2023-02-08T04:49:45;104331.30;;;-2.00;82.07
44872;BME280;30602;51.060;17.226;2023-02-08T04:53:02;104337.15;;;-1.99;81.85
44872;BME280;30602;51.060;17.226;2023-02-08T04:56:13;104325.39;;;-2.04;81.82
44872;BME280;30602;51.060;17.226;2023-02-08T04:59:42;104319.77;;;-2.06;82.18
44872;BME280;30602;51.060;17.226;2023-02-08T05:03:24;104315.64;;;-2.12;81.82
44872;BME280;30602;51.060;17.226;2023-02-08T05:06:38;104287.33;;;-2.34;81.53
44872;BME280;30602;51.060;17.226;2023-02-08T05:10:03;104304.45;;;-2.31;81.83
44872;BME280;30602;51.060;17.226;2023-02-08T05:13:38;104311.06;;;-2.53;82.19
44872;BME280;30602;51.060;17.226;2023-02-08T05:16:46;104311.94;;;-2.61;82.21
44872;BME280;30602;51.060;17.226;2023-02-08T05:19:55;104309.18;;;-2.72;82.67
44872;BME280;30602;51.060;17.226;2023-02-08T05:23:09;104309.89;;;-2.82;83.34
44872;BME280;30602;51.060;17.226;2023-02-08T05:26:30;104311.20;;;-2.89;83.31
44872;BME280;30602;51.060;17.226;2023-02-08T05:30:32;104322.30;;;-2.96;83.24
44872;BME280;30602;51.060;17.226;2023-02-08T05:34:12;104322.63;;;-3.13;82.59
44872;BME280;30602;51.060;17.226;2023-02-08T05:37:27;104334.25;;;-3.18;82.93
44872;BME280;30602;51.060;17.226;2023-02-08T05:41:03;104331.92;;;-3.29;83.18
44872;BME280;30602;51.060;17.226;2023-02-08T05:44:16;104334.27;;;-3.41;83.54
44872;BME280;30602;51.060;17.226;2023-02-08T05:48:30;104351.70;;;-3.51;83.89
44872;BME280;30602;51.060;17.226;2023-02-08T05:51:38;104354.37;;;-3.57;83.32
44872;BME280;30602;51.060;17.226;2023-02-08T05:54:56;104351.30;;;-3.89;84.48
44872;BME280;30602;51.060;17.226;2023-02-08T05:58:04;104349.02;;;-3.88;84.69
44872;BME280;30602;51.060;17.226;2023-02-08T06:01:37;104349.55;;;-3.99;84.63
44872;BME280;30602;51.060;17.226;2023-02-08T06:05:21;104340.50;;;-4.12;84.96
44872;BME280;30602;51.060;17.226;2023-02-08T06:08:39;104346.84;;;-4.12;84.61
44872;BME280;30602;51.060;17.226;2023-02-08T06:12:02;104346.44;;;-4.22;84.64
44872;BME280;30602;51.060;17.226;2023-02-08T06:15:45;104344.23;;;-4.21;84.87
44872;BME280;30602;51.060;17.226;2023-02-08T06:18:55;104347.24;;;-4.37;86.08
44872;BME280;30602;51.060;17.226;2023-02-08T06:22:35;104347.39;;;-4.28;86.62
44872;BME280;30602;51.060;17.226;2023-02-08T06:26:13;104354.08;;;-4.24;86.75
44872;BME280;30602;51.060;17.226;2023-02-08T06:29:54;104357.38;;;-4.19;87.10
44872;BME280;30602;51.060;17.226;2023-02-08T06:33:06;104361.78;;;-4.14;87.56
44872;BME280;30602;51.060;17.226;2023-02-08T06:36:27;104360.53;;;-4.15;87.47
44872;BME280;30602;51.060;17.226;2023-02-08T06:39:52;104362.43;;;-4.16;87.79
44872;BME280;30602;51.060;17.226;2023-02-08T06:43:05;104345.45;;;-4.26;87.81
44872;BME280;30602;51.060;17.226;2023-02-08T06:46:50;104365.41;;;-4.24;87.97
44872;BME280;30602;51.060;17.226;2023-02-08T06:51:00;104368.48;;;-4.17;88.34
44872;BME280;30602;51.060;17.226;2023-02-08T06:54:28;104379.38;;;-4.15;88.45
44872;BME280;30602;51.060;17.226;2023-02-08T06:58:31;104385.53;;;-4.08;88.92
44872;BME280;30602;51.060;17.226;2023-02-08T07:01:44;104396.57;;;-3.97;89.47
44872;BME280;30602;51.060;17.226;2023-02-08T07:05:34;104401.24;;;-3.85;89.71
44872;BME280;30602;51.060;17.226;2023-02-08T07:09:20;104401.73;;;-3.67;90.16
44872;BME280;30602;51.060;17.226;2023-02-08T07:12:35;104400.83;;;-3.57;90.00
44872;BME280;30602;51.060;17.226;2023-02-08T07:15:50;104407.24;;;-3.48;90.07
44872;BME280;30602;51.060;17.226;2023-02-08T07:18:58;104404.73;;;-3.35;90.16
44872;BME280;30602;51.060;17.226;2023-02-08T07:22:44;104408.80;;;-3.21;90.46
44872;BME280;30602;51.060;17.226;2023-02-08T07:26:01;104412.52;;;-3.07;90.30
44872;BME280;30602;51.060;17.226;2023-02-08T07:29:40;104404.60;;;-3.04;89.74
44872;BME280;30602;51.060;17.226;2023-02-08T07:32:51;104420.69;;;-2.82;89.49
44872;BME280;30602;51.060;17.226;2023-02-08T07:36:03;104410.95;;;-2.75;89.01
44872;BME280;30602;51.060;17.226;2023-02-08T07:39:40;104424.84;;;-2.53;88.31
44872;BME280;30602;51.060;17.226;2023-02-08T07:43:47;104422.50;;;-2.38;87.87
44872;BME280;30602;51.060;17.226;2023-02-08T07:47:05;104428.22;;;-2.31;87.76
44872;BME280;30602;51.060;17.226;2023-02-08T07:50:39;104428.28;;;-2.26;87.24
44872;BME280;30602;51.060;17.226;2023-02-08T07:54:28;104430.71;;;-2.16;86.88
44872;BME280;30602;51.060;17.226;2023-02-08T07:58:03;104430.92;;;-2.16;86.58
44872;BME280;30602;51.060;17.226;2023-02-08T08:02:03;104435.81;;;-2.10;86.09
44872;BME280;30602;51.060;17.226;2023-02-08T08:05:40;104437.87;;;-2.00;85.94
44872;BME280;30602;51.060;17.226;2023-02-08T08:09:01;104423.09;;;-2.13;85.65
44872;BME280;30602;51.060;17.226;2023-02-08T08:12:14;104439.08;;;-2.02;85.63
44872;BME280;30602;51.060;17.226;2023-02-08T08:16:03;104447.16;;;-1.95;85.70
44872;BME280;30602;51.060;17.226;2023-02-08T08:19:49;104443.09;;;-1.81;85.48
44872;BME280;30602;51.060;17.226;2023-02-08T08:23:35;104445.66;;;-1.76;85.18
44872;BME280;30602;51.060;17.226;2023-02-08T08:26:54;104445.80;;;-1.70;85.32
44872;BME280;30602;51.060;17.226;2023-02-08T08:31:18;104438.65;;;-1.65;85.25
44872;BME280;30602;51.060;17.226;2023-02-08T08:35:12;104435.56;;;-1.64;84.89
44872;BME280;30602;51.060;17.226;2023-02-08T08:38:23;104435.88;;;-1.60;84.24
44872;BME280;30602;51.060;17.226;2023-02-08T08:41:40;104435.17;;;-1.62;84.56
44872;BME280;30602;51.060;17.226;2023-02-08T08:45:16;104436.23;;;-1.58;84.82
44872;BME280;30602;51.060;17.226;2023-02-08T08:48:53;104432.55;;;-1.52;84.51
44872;BME280;30602;51.060;17.226;2023-02-08T08:52:09;104433.74;;;-1.34;84.20
44872;BME280;30602;51.060;17.226;2023-02-08T08:55:26;104419.88;;;-1.33;84.28
44872;BME280;30602;51.060;17.226;2023-02-08T08:58:56;104427.44;;;-1.25;84.37
44872;BME280;30602;51.060;17.226;2023-02-08T09:02:14;104432.90;;;-1.16;84.27
44872;BME280;30602;51.060;17.226;2023-02-08T09:06:17;104430.82;;;-1.11;84.16
44872;BME280;30602;51.060;17.226;2023-02-08T09:09:31;104433.58;;;-1.12;83.83
44872;BME280;30602;51.060;17.226;2023-02-08T09:13:04;104427.58;;;-1.13;84.09
44872;BME280;30602;51.060;17.226;2023-02-08T09:16:46;104431.80;;;-0.98;83.88
44872;BME280;30602;51.060;17.226;2023-02-08T09:20:04;104434.03;;;-0.95;83.45
44872;BME280;30602;51.060;17.226;2023-02-08T09:23:51;104438.10;;;-0.97;83.75
44872;BME280;30602;51.060;17.226;2023-02-08T09:27:50;104435.64;;;-0.89;83.74
44872;BME280;30602;51.060;17.226;2023-02-08T09:31:39;104433.98;;;-0.85;83.32
44872;BME280;30602;51.060;17.226;2023-02-08T09:34:55;104437.84;;;-0.89;82.89
44872;BME280;30602;51.060;17.226;2023-02-08T09:39:08;104440.38;;;-0.83;83.17
44872;BME280;30602;51.060;17.226;2023-02-08T09:42:34;104442.56;;;-0.81;83.21
44872;BME280;30602;51.060;17.226;2023-02-08T09:46:01;104439.10;;;-0.79;83.20
44872;BME280;30602;51.060;17.226;2023-02-08T09:49:19;104439.30;;;-0.78;83.07
44872;BME280;30602;51.060;17.226;2023-02-08T09:52:46;104432.38;;;-0.77;83.01
44872;BME280;30602;51.060;17.226;2023-02-08T09:56:52;104430.84;;;-0.70;82.62
44872;BME280;30602;51.060;17.226;2023-02-08T10:00:13;104428.11;;;-0.59;82.57
44872;BME280;30602;51.060;17.226;2023-02-08T10:03:35;104426.88;;;-0.61;82.03
44872;BME280;30602;51.060;17.226;2023-02-08T10:06:57;104425.38;;;-0.60;82.26
44872;BME280;30602;51.060;17.226;2023-02-08T10:10:20;104427.86;;;-0.56;82.46
44872;BME280;30602;51.060;17.226;2023-02-08T10:17:51;104425.69;;;-0.49;82.32
44872;BME280;30602;51.060;17.226;2023-02-08T10:28:40;104415.27;;;-0.50;82.71
44872;BME280;30602;51.060;17.226;2023-02-08T10:35:38;104412.48;;;-0.47;82.17
44872;BME280;30602;51.060;17.226;2023-02-08T10:38:58;104401.13;;;-0.38;82.22
44872;BME280;30602;51.060;17.226;2023-02-08T10:42:31;104393.49;;;-0.31;82.14
44872;BME280;30602;51.060;17.226;2023-02-08T10:46:27;104395.03;;;-0.22;82.06
44872;BME280;30602;51.060;17.226;2023-02-08T10:49:56;104388.24;;;-0.16;81.92
44872;BME280;30602;51.060;17.226;2023-02-08T10:53:27;104398.46;;;-0.12;81.78
44872;BME280;30602;51.060;17.226;2023-02-08T10:57:05;104397.05;;;-0.14;81.13
44872;BME280;30602;51.060;17.226;2023-02-08T11:00:35;104397.59;;;-0.02;80.96
44872;BME280;30602;51.060;17.226;2023-02-08T11:04:26;104393.43;;;0.07;80.88
44872;BME280;30602;51.060;17.226;2023-02-08T11:08:18;104387.55;;;0.10;80.74
44872;BME280;30602;51.060;17.226;2023-02-08T11:11:38;104378.42;;;0.04;80.25
44872;BME280;30602;51.060;17.226;2023-02-08T11:21:51;104364.24;;;0.24;80.45
44872;BME280;30602;51.060;17.226;2023-02-08T11:25:07;104357.96;;;0.08;80.30
44872;BME280;30602;51.060;17.226;2023-02-08T11:28:36;104356.16;;;0.28;80.46
44872;BME280;30602;51.060;17.226;2023-02-08T11:35:23;104344.16;;;0.37;80.02
44872;BME280;30602;51.060;17.226;2023-02-08T11:38:42;104341.81;;;0.37;80.26
44872;BME280;30602;51.060;17.226;2023-02-08T11:42:02;104340.23;;;0.39;80.34
44872;BME280;30602;51.060;17.226;2023-02-08T11:45:20;104337.85;;;0.50;80.19
44872;BME280;30602;51.060;17.226;2023-02-08T11:49:24;104331.51;;;0.69;80.07
44872;BME280;30602;51.060;17.226;2023-02-08T11:52:40;104328.86;;;0.70;79.12
44872;BME280;30602;51.060;17.226;2023-02-08T11:56:18;104334.30;;;0.55;78.60
44872;BME280;30602;51.060;17.226;2023-02-08T12:03:38;104331.58;;;0.78;79.13
44872;BME280;30602;51.060;17.226;2023-02-08T12:10:36;104338.52;;;0.51;78.62
44872;BME280;30602;51.060;17.226;2023-02-08T12:14:01;104335.33;;;0.37;78.61
44872;BME280;30602;51.060;17.226;2023-02-08T12:22:09;104335.89;;;0.34;80.36
44872;BME280;30602;51.060;17.226;2023-02-08T12:25:29;104325.77;;;0.26;80.84
44872;BME280;30602;51.060;17.226;2023-02-08T12:36:48;104318.90;;;0.30;77.04
44872;BME280;30602;51.060;17.226;2023-02-08T12:44:27;104320.46;;;0.28;76.97
44872;BME280;30602;51.060;17.226;2023-02-08T12:51:18;104307.58;;;0.29;76.70
44872;BME280;30602;51.060;17.226;2023-02-08T12:54:41;104308.74;;;0.29;76.56
44872;BME280;30602;51.060;17.226;2023-02-08T13:01:29;104299.30;;;0.43;76.28
44872;BME280;30602;51.060;17.226;2023-02-08T13:04:47;104296.75;;;0.62;76.21
44872;BME280;30602;51.060;17.226;2023-02-08T13:14:59;104293.59;;;0.88;74.18
44872;BME280;30602;51.060;17.226;2023-02-08T13:22:20;104290.55;;;1.01;74.77
44872;BME280;30602;51.060;17.226;2023-02-08T13:25:36;104286.06;;;0.96;72.82
44872;BME280;30602;51.060;17.226;2023-02-08T13:28:52;104284.36;;;0.88;72.45
44872;BME280;30602;51.060;17.226;2023-02-08T13:32:09;104278.30;;;0.74;74.11
44872;BME280;30602;51.060;17.226;2023-02-08T13:35:35;104281.20;;;0.61;73.87
44872;BME280;30602;51.060;17.226;2023-02-08T13:38:53;104278.48;;;0.75;74.60
44872;BME280;30602;51.060;17.226;2023-02-08T13:42:36;104273.28;;;0.73;74.73
44872;BME280;30602;51.060;17.226;2023-02-08T13:46:39;104261.91;;;0.79;74.27
44872;BME280;30602;51.060;17.226;2023-02-08T13:51:04;104271.44;;;0.88;73.06
44872;BME280;30602;51.060;17.226;2023-02-08T14:02:34;104254.66;;;0.66;73.53
44872;BME280;30602;51.060;17.226;2023-02-08T14:05:54;104273.59;;;0.77;73.67
44872;BME280;30602;51.060;17.226;2023-02-08T14:13:43;104260.92;;;0.71;74.69
44872;BME280;30602;51.060;17.226;2023-02-08T14:24:32;104247.23;;;0.47;74.75
44872;BME280;30602;51.060;17.226;2023-02-08T14:31:44;104256.23;;;0.50;74.80
44872;BME280;30602;51.060;17.226;2023-02-08T14:45:43;104248.06;;;0.18;76.92
44872;BME280;30602;51.060;17.226;2023-02-08T14:49:20;104241.16;;;0.09;77.99
44872;BME280;30602;51.060;17.226;2023-02-08T14:52:48;104239.16;;;-0.04;78.86
44872;BME280;30602;51.060;17.226;2023-02-08T14:59:30;104236.40;;;-0.15;79.88
44872;BME280;30602;51.060;17.226;2023-02-08T15:02:46;104236.63;;;-0.27;80.50
44872;BME280;30602;51.060;17.226;2023-02-08T15:09:39;104237.04;;;-0.31;80.84
44872;BME280;30602;51.060;17.226;2023-02-08T15:12:56;104238.70;;;-0.31;80.75
44872;BME280;30602;51.060;17.226;2023-02-08T15:16:20;104243.43;;;-0.41;81.56
44872;BME280;30602;51.060;17.226;2023-02-08T15:19:37;104244.51;;;-0.45;81.73
44872;BME280;30602;51.060;17.226;2023-02-08T15:23:21;104243.68;;;-0.48;81.71
44872;BME280;30602;51.060;17.226;2023-02-08T15:26:50;104157.30;;;-1.15;81.71
44872;BME280;30602;51.060;17.226;2023-02-08T15:34:02;104227.99;;;-0.92;82.67
44872;BME280;30602;51.060;17.226;2023-02-08T15:37:19;104246.11;;;-0.89;83.02
44872;BME280;30602;51.060;17.226;2023-02-08T15:40:40;104253.87;;;-0.97;83.25
44872;BME280;30602;51.060;17.226;2023-02-08T15:47:43;104253.00;;;-1.11;83.77
44872;BME280;30602;51.060;17.226;2023-02-08T15:51:14;104254.93;;;-1.24;84.23
44872;BME280;30602;51.060;17.226;2023-02-08T15:54:43;104262.55;;;-1.35;84.23
44872;BME280;30602;51.060;17.226;2023-02-08T16:05:38;104261.30;;;-1.47;86.14
44872;BME280;30602;51.060;17.226;2023-02-08T16:09:33;104254.81;;;-1.59;86.81
44872;BME280;30602;51.060;17.226;2023-02-08T16:12:57;104248.87;;;-1.61;87.26
44872;BME280;30602;51.060;17.226;2023-02-08T16:16:22;104248.40;;;-1.66;87.95
44872;BME280;30602;51.060;17.226;2023-02-08T16:19:36;104250.37;;;-1.67;88.22
44872;BME280;30602;51.060;17.226;2023-02-08T16:22:59;104249.68;;;-1.76;88.09
44872;BME280;30602;51.060;17.226;2023-02-08T16:26:25;104249.17;;;-1.78;88.35
44872;BME280;30602;51.060;17.226;2023-02-08T16:30:01;104248.45;;;-1.87;88.37
44872;BME280;30602;51.060;17.226;2023-02-08T16:33:12;104244.30;;;-1.90;87.97
44872;BME280;30602;51.060;17.226;2023-02-08T16:36:37;104243.90;;;-1.92;87.56
44872;BME280;30602;51.060;17.226;2023-02-08T16:43:45;104234.72;;;-2.11;86.47
44872;BME280;30602;51.060;17.226;2023-02-08T16:51:31;104243.93;;;-2.12;87.04
44872;BME280;30602;51.060;17.226;2023-02-08T16:54:55;104232.79;;;-2.26;87.84
44872;BME280;30602;51.060;17.226;2023-02-08T16:58:18;104247.81;;;-2.30;87.53
44872;BME280;30602;51.060;17.226;2023-02-08T17:01:32;104251.47;;;-2.37;87.98
44872;BME280;30602;51.060;17.226;2023-02-08T17:04:49;104245.52;;;-2.40;88.49
44872;BME280;30602;51.060;17.226;2023-02-08T17:08:19;104241.84;;;-2.40;88.32
44872;BME280;30602;51.060;17.226;2023-02-08T17:11:45;104238.06;;;-2.41;88.66
44872;BME280;30602;51.060;17.226;2023-02-08T17:15:04;104222.36;;;-2.56;88.22
44872;BME280;30602;51.060;17.226;2023-02-08T17:18:23;104235.72;;;-2.47;87.90
44872;BME280;30602;51.060;17.226;2023-02-08T17:21:50;104234.88;;;-2.63;87.82
44872;BME280;30602;51.060;17.226;2023-02-08T17:25:38;104236.06;;;-2.57;88.07
44872;BME280;30602;51.060;17.226;2023-02-08T17:29:25;104240.86;;;-2.48;88.22
44872;BME280;30602;51.060;17.226;2023-02-08T17:33:10;104242.06;;;-2.44;88.39
44872;BME280;30602;51.060;17.226;2023-02-08T17:36:36;104239.41;;;-2.47;87.65
44872;BME280;30602;51.060;17.226;2023-02-08T17:39:43;104233.53;;;-2.48;87.68
44872;BME280;30602;51.060;17.226;2023-02-08T17:43:55;104237.23;;;-2.47;87.81
44872;BME280;30602;51.060;17.226;2023-02-08T17:47:13;104236.98;;;-2.26;87.70
44872;BME280;30602;51.060;17.226;2023-02-08T17:50:28;104236.13;;;-2.22;87.38
44872;BME280;30602;51.060;17.226;2023-02-08T17:53:48;104235.29;;;-2.20;87.33
44872;BME280;30602;51.060;17.226;2023-02-08T17:57:04;104208.61;;;-2.31;87.18
44872;BME280;30602;51.060;17.226;2023-02-08T18:00:27;104232.19;;;-2.19;87.01
44872;BME280;30602;51.060;17.226;2023-02-08T18:03:43;104228.26;;;-2.14;86.78
44872;BME280;30602;51.060;17.226;2023-02-08T18:07:01;104230.15;;;-2.19;86.75
44872;BME280;30602;51.060;17.226;2023-02-08T18:10:13;104221.66;;;-2.21;86.89
44872;BME280;30602;51.060;17.226;2023-02-08T18:13:44;104225.98;;;-2.14;86.71
44872;BME280;30602;51.060;17.226;2023-02-08T18:16:57;104221.09;;;-2.16;86.48
44872;BME280;30602;51.060;17.226;2023-02-08T18:20:19;104222.75;;;-2.11;86.45
44872;BME280;30602;51.060;17.226;2023-02-08T18:24:01;104219.47;;;-2.09;86.16
44872;BME280;30602;51.060;17.226;2023-02-08T18:27:51;104218.54;;;-2.12;85.94
44872;BME280;30602;51.060;17.226;2023-02-08T18:31:14;104212.23;;;-2.06;85.82
44872;BME280;30602;51.060;17.226;2023-02-08T18:34:56;104209.14;;;-2.04;85.63
44872;BME280;30602;51.060;17.226;2023-02-08T18:38:13;104203.06;;;-2.01;85.52
44872;BME280;30602;51.060;17.226;2023-02-08T18:41:44;104199.54;;;-2.11;85.98
44872;BME280;30602;51.060;17.226;2023-02-08T18:44:58;104196.97;;;-2.20;86.44
44872;BME280;30602;51.060;17.226;2023-02-08T18:48:14;104197.41;;;-2.22;86.74
44872;BME280;30602;51.060;17.226;2023-02-08T18:51:44;104194.41;;;-2.16;86.99
44872;BME280;30602;51.060;17.226;2023-02-08T18:55:02;104186.59;;;-2.12;86.42
44872;BME280;30602;51.060;17.226;2023-02-08T18:58:17;104191.03;;;-2.20;86.58
44872;BME280;30602;51.060;17.226;2023-02-08T19:01:30;104183.98;;;-2.24;86.63
44872;BME280;30602;51.060;17.226;2023-02-08T19:05:06;104183.80;;;-2.19;86.68
44872;BME280;30602;51.060;17.226;2023-02-08T19:08:35;104174.70;;;-2.22;86.16
44872;BME280;30602;51.060;17.226;2023-02-08T19:11:52;104178.81;;;-2.17;85.48
44872;BME280;30602;51.060;17.226;2023-02-08T19:15:07;104171.05;;;-2.27;85.55
44872;BME280;30602;51.060;17.226;2023-02-08T19:18:24;104168.80;;;-2.29;85.83
44872;BME280;30602;51.060;17.226;2023-02-08T19:22:13;104167.03;;;-2.34;85.85
44872;BME280;30602;51.060;17.226;2023-02-08T19:25:28;104167.20;;;-2.28;85.79
44872;BME280;30602;51.060;17.226;2023-02-08T19:28:48;104175.63;;;-2.30;85.37
44872;BME280;30602;51.060;17.226;2023-02-08T19:32:14;104172.74;;;-2.30;84.99
44872;BME280;30602;51.060;17.226;2023-02-08T19:35:47;104173.53;;;-2.27;84.92
44872;BME280;30602;51.060;17.226;2023-02-08T19:39:28;104179.31;;;-2.26;84.82
44872;BME280;30602;51.060;17.226;2023-02-08T19:42:53;104179.78;;;-2.27;84.75
44872;BME280;30602;51.060;17.226;2023-02-08T19:46:33;104183.59;;;-2.29;84.81
44872;BME280;30602;51.060;17.226;2023-02-08T19:49:54;104187.41;;;-2.27;84.75
44872;BME280;30602;51.060;17.226;2023-02-08T19:53:12;104185.70;;;-2.35;84.73
44872;BME280;30602;51.060;17.226;2023-02-08T19:56:29;104180.65;;;-2.39;84.88
44872;BME280;30602;51.060;17.226;2023-02-08T19:59:42;104182.05;;;-2.41;85.22
44872;BME280;30602;51.060;17.226;2023-02-08T20:02:56;104183.80;;;-2.46;85.33
44872;BME280;30602;51.060;17.226;2023-02-08T20:06:30;104177.02;;;-2.62;85.17
44872;BME280;30602;51.060;17.226;2023-02-08T20:10:13;104180.75;;;-2.67;84.95
44872;BME280;30602;51.060;17.226;2023-02-08T20:13:35;104169.84;;;-2.86;84.81
44872;BME280;30602;51.060;17.226;2023-02-08T20:17:10;104159.80;;;-2.98;85.12
44872;BME280;30602;51.060;17.226;2023-02-08T20:20:35;104163.44;;;-3.01;85.51
44872;BME280;30602;51.060;17.226;2023-02-08T20:23:50;104163.77;;;-3.09;85.69
44872;BME280;30602;51.060;17.226;2023-02-08T20:28:21;104158.22;;;-3.08;86.29
44872;BME280;30602;51.060;17.226;2023-02-08T20:32:02;104158.86;;;-3.04;86.16
44872;BME280;30602;51.060;17.226;2023-02-08T20:35:16;104154.62;;;-3.04;86.43
44872;BME280;30602;51.060;17.226;2023-02-08T20:38:27;104157.16;;;-3.03;86.89
44872;BME280;30602;51.060;17.226;2023-02-08T20:41:42;104160.76;;;-3.13;86.62
44872;BME280;30602;51.060;17.226;2023-02-08T20:45:00;104154.15;;;-3.29;86.38
44872;BME280;30602;51.060;17.226;2023-02-08T20:48:11;104145.86;;;-3.40;86.54
44872;BME280;30602;51.060;17.226;2023-02-08T20:51:29;104144.88;;;-3.46;87.00
44872;BME280;30602;51.060;17.226;2023-02-08T20:54:48;104148.37;;;-3.58;87.00
44872;BME280;30602;51.060;17.226;2023-02-08T20:58:26;104140.97;;;-3.66;87.35
44872;BME280;30602;51.060;17.226;2023-02-08T21:01:38;104139.99;;;-3.79;87.24
44872;BME280;30602;51.060;17.226;2023-02-08T21:05:15;104133.02;;;-3.74;88.06